createdAt,value
2019-03-06T00:01:06.421Z,72.50
2019-03-06T00:03:35.869Z,72.20
2019-03-06T00:06:05.317Z,72.00
2019-03-06T00:08:34.875Z,72.20
2019-03-06T00:11:04.334Z,72.60
2019-03-06T00:13:34.279Z,72.60
2019-03-06T00:16:03.547Z,72.00
2019-03-06T00:18:32.793Z,71.80
2019-03-06T00:21:03.415Z,71.70
2019-03-06T00:23:32.894Z,71.80
2019-03-06T00:26:02.434Z,71.10
2019-03-06T00:28:32.117Z,71.20
2019-03-06T00:31:01.646Z,71.10
2019-03-06T00:33:30.842Z,70.90
2019-03-06T00:36:01.680Z,70.90
2019-03-06T00:38:30.941Z,71.00
2019-03-06T00:41:04.811Z,70.30
2019-03-06T00:43:34.279Z,70.70
2019-03-06T00:46:03.955Z,70.40
2019-03-06T00:48:33.495Z,70.80
2019-03-06T00:51:03.179Z,70.70
2019-03-06T00:53:32.685Z,70.50
2019-03-06T00:56:02.800Z,70.40
2019-03-06T00:58:32.111Z,70.40
2019-03-06T01:01:01.622Z,70.60
2019-03-06T01:03:31.108Z,70.50
2019-03-06T01:06:00.626Z,70.40
2019-03-06T01:08:30.119Z,70.10
2019-03-06T01:10:59.699Z,69.50
2019-03-06T01:13:29.041Z,69.80
2019-03-06T01:15:58.302Z,69.90
2019-03-06T01:18:27.941Z,69.90
2019-03-06T01:20:57.605Z,69.60
2019-03-06T01:23:27.725Z,69.70
2019-03-06T01:25:57.292Z,69.90
2019-03-06T01:28:26.644Z,69.90
2019-03-06T01:30:56.316Z,69.60
2019-03-06T01:33:39.293Z,70.00
2019-03-06T01:36:12.810Z,68.80
2019-03-06T01:38:44.167Z,68.70
2019-03-06T01:41:15.149Z,69.00
2019-03-06T01:43:49.366Z,68.90
2019-03-06T01:46:18.601Z,69.00
2019-03-06T01:48:48.167Z,69.60
2019-03-06T01:51:17.677Z,69.00
2019-03-06T01:53:46.972Z,68.70
2019-03-06T01:56:16.429Z,69.00
2019-03-06T01:58:45.780Z,68.30
2019-03-06T02:01:15.503Z,68.60
2019-03-06T02:03:44.976Z,68.70
2019-03-06T02:06:14.486Z,68.20
2019-03-06T02:08:44.013Z,68.30
2019-03-06T02:11:13.706Z,67.80
2019-03-06T02:13:43.016Z,67.80
2019-03-06T02:16:12.477Z,67.60
2019-03-06T02:18:42.600Z,67.70
2019-03-06T02:21:12.132Z,67.80
2019-03-06T02:23:41.322Z,67.90
2019-03-06T02:26:10.637Z,67.90
2019-03-06T02:28:39.982Z,68.50
2019-03-06T02:31:09.516Z,67.80
2019-03-06T02:33:39.031Z,67.60
2019-03-06T02:36:08.275Z,68.10
2019-03-06T02:38:37.503Z,68.20
2019-03-06T02:41:06.814Z,68.30
2019-03-06T02:43:36.444Z,67.40
2019-03-06T02:46:05.706Z,67.50
2019-03-06T02:48:35.220Z,66.70
2019-03-06T02:51:04.490Z,66.50
2019-03-06T02:53:34.023Z,66.90
2019-03-06T02:56:03.972Z,66.40
2019-03-06T02:58:44.444Z,66.40
2019-03-06T03:01:15.433Z,66.80
2019-03-06T03:03:49.492Z,66.10
2019-03-06T03:06:20.829Z,65.80
2019-03-06T03:08:50.157Z,66.40
2019-03-06T03:11:19.974Z,66.90
2019-03-06T03:13:49.507Z,66.80
2019-03-06T03:16:18.713Z,66.40
2019-03-06T03:18:48.060Z,67.00
2019-03-06T03:21:17.297Z,66.10
2019-03-06T03:23:46.564Z,65.70
2019-03-06T03:26:16.389Z,66.20
2019-03-06T03:28:45.927Z,65.50
2019-03-06T03:31:15.608Z,65.40
2019-03-06T03:33:45.183Z,64.30
2019-03-06T03:36:14.509Z,65.00
2019-03-06T03:38:43.928Z,64.90
2019-03-06T03:41:13.239Z,64.00
2019-03-06T03:43:42.748Z,63.30
2019-03-06T03:46:12.208Z,63.20
2019-03-06T03:48:41.733Z,62.50
2019-03-06T03:51:10.980Z,62.40
2019-03-06T03:53:40.244Z,61.80
2019-03-06T03:56:09.623Z,61.40
2019-03-06T03:58:38.935Z,61.80
2019-03-06T04:01:08.393Z,61.80
2019-03-06T04:03:37.671Z,60.20
2019-03-06T04:06:07.018Z,60.00
2019-03-06T04:08:36.771Z,59.00
2019-03-06T04:11:06.236Z,57.70
2019-03-06T04:13:35.563Z,58.40
2019-03-06T04:16:04.768Z,58.20
2019-03-06T04:18:35.569Z,58.30
2019-03-06T04:21:05.685Z,57.20
2019-03-06T04:23:34.966Z,56.70
2019-03-06T04:26:04.681Z,57.20
2019-03-06T04:28:34.194Z,57.30
2019-03-06T04:31:03.654Z,56.80
2019-03-06T04:33:33.185Z,56.40
2019-03-06T04:36:02.712Z,55.70
2019-03-06T04:38:31.903Z,56.70
2019-03-06T04:41:01.276Z,56.30
2019-03-06T04:43:30.530Z,55.80
2019-03-06T04:45:59.700Z,55.20
2019-03-06T04:48:29.172Z,55.80
2019-03-06T04:50:58.480Z,55.40
2019-03-06T04:53:27.811Z,54.80
2019-03-06T04:55:57.283Z,55.00
2019-03-06T04:58:27.006Z,55.30
2019-03-06T05:00:56.300Z,55.00
2019-03-06T05:03:25.818Z,54.60
2019-03-06T05:05:55.311Z,54.60
2019-03-06T05:08:26.642Z,54.50
2019-03-06T05:10:56.148Z,53.70
2019-03-06T05:13:25.701Z,53.60
2019-03-06T05:15:55.138Z,53.00
2019-03-06T05:18:28.980Z,53.30
2019-03-06T05:20:58.912Z,52.90
2019-03-06T05:23:28.338Z,52.80
2019-03-06T05:25:57.875Z,52.50
2019-03-06T05:28:27.187Z,52.80
2019-03-06T05:30:57.911Z,51.70
2019-03-06T05:33:28.758Z,51.70
2019-03-06T05:36:13.581Z,51.90
2019-03-06T05:38:49.507Z,50.50
2019-03-06T05:41:18.936Z,51.70
2019-03-06T05:43:48.609Z,52.00
2019-03-06T05:46:17.794Z,50.90
2019-03-06T05:48:47.353Z,50.80
2019-03-06T05:51:16.695Z,50.30
2019-03-06T05:53:47.621Z,49.70
2019-03-06T05:56:17.193Z,49.70
2019-03-06T05:58:46.399Z,50.00
2019-03-06T06:01:15.662Z,48.70
2019-03-06T06:03:44.899Z,50.10
2019-03-06T06:06:14.185Z,50.00
2019-03-06T06:08:43.795Z,50.00
2019-03-06T06:11:13.510Z,49.60
2019-03-06T06:13:42.759Z,49.10
2019-03-06T06:16:12.269Z,48.60
2019-03-06T06:18:41.528Z,48.10
2019-03-06T06:21:12.494Z,47.70
2019-03-06T06:23:43.412Z,47.90
2019-03-06T06:26:12.596Z,47.10
2019-03-06T06:28:42.081Z,47.30
2019-03-06T06:31:11.712Z,46.40
2019-03-06T06:33:41.270Z,46.90
2019-03-06T06:36:11.646Z,45.90
2019-03-06T06:38:41.118Z,44.00
2019-03-06T06:41:10.619Z,45.00
2019-03-06T06:43:39.940Z,45.00
2019-03-06T06:46:09.483Z,43.50
2019-03-06T06:48:38.751Z,43.50
2019-03-06T06:51:11.282Z,43.90
2019-03-06T06:53:56.122Z,43.40
2019-03-06T06:56:46.999Z,42.70
2019-03-06T06:59:31.815Z,43.40
2019-03-06T07:02:20.297Z,42.30
2019-03-06T07:05:22.803Z,42.40
2019-03-06T07:08:09.051Z,41.90
2019-03-06T07:10:58.330Z,42.20
2019-03-06T07:13:35.181Z,42.00
2019-03-06T07:16:15.180Z,41.80
2019-03-06T07:19:03.449Z,41.70
2019-03-06T07:21:35.070Z,41.30
2019-03-06T07:24:06.159Z,41.20
2019-03-06T07:26:37.237Z,40.50
2019-03-06T07:29:08.127Z,40.20
2019-03-06T07:31:55.792Z,40.70
2019-03-06T07:34:32.488Z,40.30
2019-03-06T07:37:09.313Z,39.90
2019-03-06T07:39:40.210Z,38.70
2019-03-06T07:42:29.578Z,38.70
2019-03-06T07:45:44.866Z,38.60
2019-03-06T07:48:22.273Z,37.30
2019-03-06T07:51:09.899Z,38.30
2019-03-06T07:53:53.618Z,39.00
2019-03-06T07:56:40.508Z,38.90
2019-03-06T07:59:10.048Z,38.60
2019-03-06T08:01:51.706Z,39.80
2019-03-06T08:04:20.948Z,38.20
2019-03-06T08:06:51.833Z,38.50
2019-03-06T08:09:21.196Z,39.20
2019-03-06T08:11:57.865Z,38.50
2019-03-06T08:14:45.119Z,39.00
2019-03-06T08:17:25.205Z,38.80
2019-03-06T08:20:00.027Z,38.30
2019-03-06T08:22:50.900Z,38.10
2019-03-06T08:25:38.359Z,38.60
2019-03-06T08:28:08.426Z,40.20
2019-03-06T08:30:39.315Z,41.00
2019-03-06T08:33:17.710Z,40.40
2019-03-06T08:35:40.026Z,40.50
2019-03-06T08:38:09.500Z,39.60
2019-03-06T08:40:38.799Z,40.50
2019-03-06T08:43:08.256Z,41.10
2019-03-06T08:45:48.072Z,41.00
2019-03-06T08:48:18.879Z,42.40
2019-03-06T08:51:05.122Z,40.50
2019-03-06T08:53:52.683Z,42.40
2019-03-06T08:56:40.438Z,40.50
2019-03-06T08:59:11.420Z,42.10
2019-03-06T09:01:42.432Z,41.60
2019-03-06T09:04:19.080Z,40.30
2019-03-06T09:06:49.942Z,43.30
2019-03-06T09:09:23.943Z,40.70
2019-03-06T09:11:54.834Z,40.60
2019-03-06T09:14:42.163Z,42.60
2019-03-06T09:17:30.033Z,41.60
2019-03-06T09:20:07.199Z,43.50
2019-03-06T09:22:56.395Z,43.40
2019-03-06T09:25:27.518Z,44.50
2019-03-06T09:27:59.173Z,44.10
2019-03-06T09:30:45.413Z,46.10
2019-03-06T09:33:16.384Z,46.50
2019-03-06T09:36:03.484Z,47.80
2019-03-06T09:38:41.445Z,46.70
2019-03-06T09:41:28.629Z,46.90
2019-03-06T09:44:02.596Z,47.70
2019-03-06T09:46:33.620Z,48.50
2019-03-06T09:49:11.634Z,46.50
2019-03-06T09:51:58.903Z,45.60
2019-03-06T09:54:32.756Z,46.50
2019-03-06T09:57:12.655Z,46.90
2019-03-06T09:59:59.090Z,47.60
2019-03-06T10:02:30.061Z,46.10
2019-03-06T10:05:18.038Z,47.30
2019-03-06T10:07:49.149Z,47.00
2019-03-06T10:10:23.652Z,46.80
2019-03-06T10:13:09.877Z,47.80
2019-03-06T10:15:58.959Z,48.90
2019-03-06T10:18:41.951Z,46.80
2019-03-06T10:21:11.847Z,47.10
2019-03-06T10:23:41.306Z,46.90
2019-03-06T10:26:11.432Z,47.70
2019-03-06T10:28:41.279Z,47.90
2019-03-06T10:31:11.077Z,47.80
2019-03-06T10:33:40.731Z,47.70
2019-03-06T10:36:10.428Z,47.40
2019-03-06T10:38:39.951Z,48.80
2019-03-06T10:41:09.301Z,48.40
2019-03-06T10:43:38.617Z,48.60
2019-03-06T10:46:08.445Z,49.80
2019-03-06T10:48:37.813Z,48.60
2019-03-06T10:51:07.443Z,47.60
2019-03-06T10:53:41.475Z,46.40
2019-03-06T10:56:08.120Z,47.40
2019-03-06T10:58:37.384Z,48.40
2019-03-06T11:01:07.320Z,48.50
2019-03-06T11:03:38.391Z,49.00
2019-03-06T11:06:08.137Z,47.20
2019-03-06T11:08:37.663Z,47.30
2019-03-06T11:11:07.187Z,48.20
2019-03-06T11:13:36.555Z,48.30
2019-03-06T11:16:06.464Z,47.40
2019-03-06T11:18:35.886Z,49.70
2019-03-06T11:21:06.101Z,46.40
2019-03-06T11:23:35.551Z,48.20
2019-03-06T11:26:06.266Z,47.50
2019-03-06T11:28:35.660Z,46.60
2019-03-06T11:31:05.003Z,46.40
2019-03-06T11:33:34.297Z,46.70
2019-03-06T11:36:03.813Z,47.20
2019-03-06T11:38:33.362Z,47.20
2019-03-06T11:41:05.145Z,47.00
2019-03-06T11:43:34.424Z,46.70
2019-03-06T11:46:03.902Z,46.70
2019-03-06T11:48:33.224Z,47.20
2019-03-06T11:51:02.564Z,47.10
2019-03-06T11:53:32.948Z,47.40
2019-03-06T11:56:04.153Z,46.90
2019-03-06T11:58:33.718Z,47.80
2019-03-06T12:01:03.204Z,48.60
2019-03-06T12:03:33.042Z,46.80
2019-03-06T12:06:02.776Z,47.20
2019-03-06T12:08:32.292Z,47.20
2019-03-06T12:11:01.734Z,45.90
2019-03-06T12:13:31.055Z,45.20
2019-03-06T12:16:00.910Z,45.70
2019-03-06T12:18:30.434Z,45.60
2019-03-06T12:20:59.950Z,45.00
2019-03-06T12:23:29.490Z,44.90
2019-03-06T12:25:58.739Z,44.80
2019-03-06T12:28:27.990Z,45.70
2019-03-06T12:30:57.641Z,42.80
2019-03-06T12:33:27.735Z,44.30
2019-03-06T12:35:57.168Z,42.70
2019-03-06T12:38:26.719Z,43.30
2019-03-06T12:40:55.976Z,42.90
2019-03-06T12:43:25.546Z,41.30
2019-03-06T12:46:23.911Z,42.20
2019-03-06T12:48:54.654Z,41.90
2019-03-06T12:51:24.544Z,41.90
2019-03-06T12:53:54.095Z,41.20
2019-03-06T12:56:23.719Z,40.70
2019-03-06T12:58:53.223Z,39.90
2019-03-06T13:01:22.984Z,40.90
2019-03-06T13:03:52.518Z,41.30
2019-03-06T13:06:24.685Z,39.80
2019-03-06T13:08:56.404Z,41.20
2019-03-06T13:11:25.513Z,42.50
2019-03-06T13:13:55.140Z,44.30
2019-03-06T13:16:24.730Z,43.60
2019-03-06T13:18:54.069Z,45.90
2019-03-06T13:21:24.473Z,45.00
2019-03-06T13:23:53.780Z,46.90
2019-03-06T13:26:23.302Z,46.20
2019-03-06T13:28:57.352Z,45.80
2019-03-06T13:31:25.019Z,47.70
2019-03-06T13:34:03.098Z,45.80
2019-03-06T13:36:33.252Z,46.70
2019-03-06T13:39:06.408Z,45.70
2019-03-06T13:41:33.481Z,45.30
2019-03-06T13:44:03.101Z,44.50
2019-03-06T13:46:32.678Z,44.50
2019-03-06T13:49:02.035Z,44.30
2019-03-06T13:51:31.894Z,44.50
2019-03-06T13:54:01.403Z,45.50
2019-03-06T13:56:30.846Z,46.00
2019-03-06T13:59:00.760Z,45.60
2019-03-06T14:01:30.100Z,43.70
2019-03-06T14:03:59.433Z,44.20
2019-03-06T14:06:29.475Z,45.80
2019-03-06T14:08:59.036Z,44.40
2019-03-06T14:11:28.657Z,43.00
2019-03-06T14:13:58.397Z,43.40
2019-03-06T14:16:27.749Z,44.40
2019-03-06T14:18:57.196Z,44.40
2019-03-06T14:21:26.475Z,44.30
2019-03-06T14:23:55.804Z,43.20
2019-03-06T14:26:25.321Z,43.40
2019-03-06T14:28:57.396Z,42.70
2019-03-06T14:31:26.654Z,44.30
2019-03-06T14:33:55.929Z,43.90
2019-03-06T14:36:25.355Z,43.10
2019-03-06T14:38:54.894Z,43.00
2019-03-06T14:41:24.441Z,43.50
2019-03-06T14:43:53.909Z,43.50
2019-03-06T14:46:23.656Z,43.40
2019-03-06T14:48:52.996Z,42.50
2019-03-06T14:51:22.258Z,44.00
2019-03-06T14:53:52.096Z,42.90
2019-03-06T14:56:21.844Z,43.10
2019-03-06T14:58:51.520Z,44.40
2019-03-06T15:01:21.069Z,44.90
2019-03-06T15:03:50.274Z,46.20
2019-03-06T15:06:19.823Z,46.10
2019-03-06T15:08:49.374Z,47.80
2019-03-06T15:11:18.963Z,47.70
2019-03-06T15:13:48.607Z,46.50
2019-03-06T15:16:18.252Z,47.30
2019-03-06T15:18:47.811Z,47.40
2019-03-06T15:21:17.142Z,48.00
2019-03-06T15:23:46.767Z,49.30
2019-03-06T15:26:16.311Z,48.90
2019-03-06T15:28:45.748Z,48.60
2019-03-06T15:31:15.310Z,49.00
2019-03-06T15:33:44.821Z,49.60
2019-03-06T15:36:14.454Z,49.70
2019-03-06T15:38:43.994Z,51.20
2019-03-06T15:41:13.720Z,51.70
2019-03-06T15:43:43.078Z,51.80
2019-03-06T15:46:12.741Z,52.40
2019-03-06T15:48:42.065Z,52.50
2019-03-06T15:51:11.739Z,52.60
2019-03-06T15:53:42.266Z,53.50
2019-03-06T15:56:14.111Z,52.50
2019-03-06T15:58:43.468Z,52.40
2019-03-06T16:01:12.802Z,53.50
2019-03-06T16:03:42.195Z,53.60
2019-03-06T16:06:20.188Z,53.60
2019-03-06T16:08:43.583Z,54.10
2019-03-06T16:11:13.033Z,53.60
2019-03-06T16:13:42.554Z,53.90
2019-03-06T16:16:12.088Z,52.70
2019-03-06T16:18:41.826Z,53.30
2019-03-06T16:21:11.472Z,53.30
2019-03-06T16:23:41.016Z,52.70
2019-03-06T16:26:10.434Z,52.50
2019-03-06T16:28:39.980Z,53.20
2019-03-06T16:31:09.727Z,52.80
2019-03-06T16:33:39.380Z,53.90
2019-03-06T16:36:08.952Z,53.20
2019-03-06T16:38:38.580Z,53.80
2019-03-06T16:41:08.317Z,53.30
2019-03-06T16:43:37.848Z,53.40
2019-03-06T16:46:07.194Z,53.60
2019-03-06T16:48:36.451Z,54.60
2019-03-06T16:51:06.087Z,55.10
2019-03-06T16:53:35.677Z,54.70
2019-03-06T16:56:05.116Z,54.80
2019-03-06T16:58:34.462Z,54.00
2019-03-06T17:01:04.277Z,54.80
2019-03-06T17:03:33.843Z,54.10
2019-03-06T17:06:03.182Z,54.30
2019-03-06T17:08:32.611Z,54.20
2019-03-06T17:11:01.879Z,54.80
2019-03-06T17:13:31.243Z,55.30
2019-03-06T17:16:00.721Z,55.60
2019-03-06T17:18:29.967Z,55.40
2019-03-06T17:20:59.811Z,55.40
2019-03-06T17:23:29.184Z,55.40
2019-03-06T17:25:58.849Z,55.50
2019-03-06T17:28:28.667Z,54.90
2019-03-06T17:30:58.013Z,55.70
2019-03-06T17:33:27.474Z,55.10
2019-03-06T17:35:56.719Z,55.70
2019-03-06T17:38:26.067Z,55.80
2019-03-06T17:40:55.403Z,55.70
2019-03-06T17:43:25.349Z,56.00
2019-03-06T17:45:54.769Z,56.20
2019-03-06T17:48:24.340Z,55.50
2019-03-06T17:50:53.781Z,56.10
2019-03-06T17:53:23.110Z,56.10
2019-03-06T17:55:52.831Z,56.40
2019-03-06T17:58:22.194Z,57.20
2019-03-06T18:00:53.098Z,56.60
2019-03-06T18:03:38.820Z,56.80
2019-03-06T18:06:08.241Z,57.00
2019-03-06T18:08:37.990Z,57.20
2019-03-06T18:11:07.417Z,57.20
2019-03-06T18:13:36.943Z,57.60
2019-03-06T18:16:06.281Z,58.80
2019-03-06T18:18:36.627Z,59.30
2019-03-06T18:21:06.324Z,60.10
2019-03-06T18:23:35.743Z,60.00
2019-03-06T18:26:06.123Z,60.60
2019-03-06T18:28:35.632Z,60.70
2019-03-06T18:31:04.959Z,61.00
2019-03-06T18:33:34.255Z,61.40
2019-03-06T18:36:03.805Z,60.60
2019-03-06T18:38:33.138Z,60.70
2019-03-06T18:41:02.791Z,61.30
2019-03-06T18:43:32.649Z,61.40
2019-03-06T18:46:01.957Z,61.70
2019-03-06T18:48:31.393Z,61.80
2019-03-06T18:51:01.142Z,62.70
2019-03-06T18:53:30.684Z,62.90
2019-03-06T18:56:00.328Z,62.80
2019-03-06T18:58:29.824Z,62.80
2019-03-06T19:00:59.554Z,63.20
2019-03-06T19:03:29.094Z,63.60
2019-03-06T19:05:58.758Z,63.90
2019-03-06T19:08:31.274Z,64.10
2019-03-06T19:10:59.373Z,64.40
2019-03-06T19:13:28.920Z,64.30
2019-03-06T19:15:58.630Z,64.60
2019-03-06T19:18:29.169Z,64.60
2019-03-06T19:20:58.977Z,64.50
2019-03-06T19:23:28.325Z,64.70
2019-03-06T19:25:57.656Z,65.00
2019-03-06T19:28:27.200Z,65.30
2019-03-06T19:30:56.561Z,65.60
2019-03-06T19:33:26.178Z,65.90
2019-03-06T19:35:55.740Z,65.90
2019-03-06T19:38:25.011Z,65.80
2019-03-06T19:40:54.461Z,66.10
2019-03-06T19:43:23.870Z,66.40
2019-03-06T19:45:53.207Z,66.50
2019-03-06T19:48:22.561Z,66.90
2019-03-06T19:50:51.986Z,66.90
2019-03-06T19:53:21.343Z,67.10
2019-03-06T19:55:51.080Z,67.20
2019-03-06T19:58:20.554Z,66.90
2019-03-06T20:00:49.892Z,67.00
2019-03-06T20:03:20.456Z,67.20
2019-03-06T20:05:49.799Z,67.60
2019-03-06T20:08:19.650Z,67.40
2019-03-06T20:10:49.107Z,67.30
2019-03-06T20:13:18.662Z,67.40
2019-03-06T20:15:48.379Z,67.60
2019-03-06T20:18:17.865Z,67.90
2019-03-06T20:20:47.294Z,68.30
2019-03-06T20:23:16.498Z,67.90
2019-03-06T20:25:46.434Z,68.00
2019-03-06T20:28:16.098Z,68.30
2019-03-06T20:30:45.763Z,68.30
2019-03-06T20:33:15.090Z,68.00
2019-03-06T20:35:44.627Z,67.60
2019-03-06T20:38:14.289Z,67.70
2019-03-06T20:40:44.239Z,67.60
2019-03-06T20:43:13.889Z,67.80
2019-03-06T20:45:43.416Z,68.30
2019-03-06T20:48:12.971Z,68.10
2019-03-06T20:50:42.598Z,68.00
2019-03-06T20:53:11.972Z,68.00
2019-03-06T20:55:41.632Z,68.30
2019-03-06T20:58:11.173Z,68.20
2019-03-06T21:00:40.511Z,67.70
2019-03-06T21:03:09.851Z,68.20
2019-03-06T21:05:39.408Z,68.20
2019-03-06T21:08:09.343Z,68.70
2019-03-06T21:10:39.297Z,68.60
2019-03-06T21:13:08.487Z,68.80
2019-03-06T21:15:57.477Z,69.10
2019-03-06T21:18:33.306Z,68.60
2019-03-06T21:21:02.676Z,68.60
2019-03-06T21:23:32.040Z,69.00
2019-03-06T21:26:01.877Z,69.40
2019-03-06T21:28:31.557Z,69.10
2019-03-06T21:31:01.091Z,68.40
2019-03-06T21:33:30.592Z,68.50
2019-03-06T21:36:00.323Z,68.90
2019-03-06T21:38:29.783Z,69.10
2019-03-06T21:40:59.514Z,69.40
2019-03-06T21:43:29.069Z,69.40
2019-03-06T21:45:58.522Z,69.60
2019-03-06T21:48:28.252Z,69.50
2019-03-06T21:50:57.594Z,69.40
2019-03-06T21:53:27.042Z,69.50
2019-03-06T21:55:56.778Z,69.50
2019-03-06T21:58:26.243Z,69.50
2019-03-06T22:00:55.782Z,69.60
2019-03-06T22:03:25.231Z,70.10
2019-03-06T22:05:54.763Z,70.10
2019-03-06T22:08:25.854Z,70.40
2019-03-06T22:10:55.135Z,70.60
2019-03-06T22:13:24.885Z,71.20
2019-03-06T22:15:54.431Z,71.00
2019-03-06T22:18:24.060Z,71.50
2019-03-06T22:20:53.592Z,71.20
2019-03-06T22:23:23.331Z,71.30
2019-03-06T22:25:52.610Z,70.90
2019-03-06T22:28:21.893Z,71.00
2019-03-06T22:30:51.442Z,71.00
2019-03-06T22:33:21.083Z,70.90
2019-03-06T22:35:50.624Z,70.80
2019-03-06T22:38:20.924Z,71.20
2019-03-06T22:40:50.462Z,71.20
2019-03-06T22:43:20.324Z,70.80
2019-03-06T22:45:49.628Z,70.40
2019-03-06T22:48:19.168Z,70.40
2019-03-06T22:50:48.505Z,70.00
2019-03-06T22:53:18.200Z,70.00
2019-03-06T22:55:47.840Z,70.10
2019-03-06T22:58:17.609Z,70.10
2019-03-06T23:00:59.397Z,70.70
2019-03-06T23:03:29.082Z,70.70
2019-03-06T23:05:58.825Z,70.90
2019-03-06T23:08:28.703Z,71.20
2019-03-06T23:10:58.455Z,71.70
2019-03-06T23:13:28.099Z,71.60
2019-03-06T23:15:57.642Z,71.40
2019-03-06T23:18:26.997Z,71.00
2019-03-06T23:20:56.445Z,71.40
2019-03-06T23:23:25.724Z,71.80
2019-03-06T23:25:55.722Z,71.90
2019-03-06T23:28:25.109Z,71.60
2019-03-06T23:30:54.479Z,71.70
2019-03-06T23:33:23.935Z,71.90
2019-03-06T23:35:53.215Z,71.70
2019-03-06T23:38:22.750Z,71.50
2019-03-06T23:40:52.494Z,71.50
2019-03-06T23:43:21.928Z,71.60
2019-03-06T23:45:51.459Z,71.40
2019-03-06T23:48:20.731Z,71.20
2019-03-06T23:50:50.311Z,71.10
2019-03-06T23:53:20.427Z,71.00
2019-03-06T23:55:50.072Z,70.90
2019-03-06T23:58:19.407Z,71.00
